Time;durP1;ratioP1;P1;durP2;ratioP2;P2;SDS_P1;SDS_P2;PMS_P1;PMS_P2;Temp;Humidity;BMP_temperature;BMP_pressure;BME280_temperature;BME280_humidity;BME280_pressure;Samples;Min_cycle;Max_cycle;Signal;HPM_P1;HPM_P2
2023/05/05 00:01:51;;;;;;;19.20;16.10;;;;;;;12.41;41.64;100966.47;110786;1262;21971;-78
2023/05/05 00:04:23;;;;;;;19.70;15.90;;;;;;;12.39;41.87;100968.11;110670;1261;21998;-78
2023/05/05 00:06:52;;;;;;;17.60;14.80;;;;;;;12.38;42.06;100967.80;110177;1261;22008;-77
2023/05/05 00:09:23;;;;;;;22.30;14.60;;;;;;;12.36;42.13;100966.85;110820;1261;21972;-78
2023/05/05 00:11:52;;;;;;;18.30;14.40;;;;;;;12.35;42.15;100967.75;110853;1261;23050;-77
2023/05/05 00:14:21;;;;;;;14.50;12.80;;;;;;;12.33;42.20;100968.33;110835;1260;21978;-77
2023/05/05 00:16:56;;;;;;;18.70;13.80;;;;;;;12.28;42.24;100970.59;110322;1266;21981;-76
2023/05/05 00:19:26;;;;;;;18.50;13.60;;;;;;;12.25;42.40;100973.66;110270;1266;21963;-76
2023/05/05 00:21:58;;;;;;;15.80;13.00;;;;;;;12.23;42.38;100974.76;110296;1265;21984;-77
2023/05/05 00:24:28;;;;;;;20.40;14.60;;;;;;;12.24;42.58;100975.61;110564;1260;22004;-77
2023/05/05 00:27:01;;;;;;;18.40;13.20;;;;;;;12.22;42.81;100969.75;110556;1263;22035;-77
2023/05/05 00:29:30;;;;;;;18.30;11.10;;;;;;;12.23;42.74;100970.08;110609;1265;21984;-76
2023/05/05 00:31:58;;;;;;;16.80;11.50;;;;;;;12.21;42.82;100970.30;110252;1265;21968;-76
2023/05/05 00:34:27;;;;;;;19.90;11.90;;;;;;;12.20;42.96;100966.33;109908;1271;23138;-77
2023/05/05 00:36:56;;;;;;;18.20;11.30;;;;;;;12.19;42.99;100964.44;109871;1270;21986;-77
2023/05/05 00:39:25;;;;;;;14.10;10.90;;;;;;;12.18;42.94;100964.67;109637;1270;23010;-77
2023/05/05 00:41:54;;;;;;;15.90;11.30;;;;;;;12.15;42.86;100963.02;109403;1271;23713;-77
2023/05/05 00:44:40;;;;;;;15.60;12.90;;;;;;;12.12;42.79;100955.27;109502;1265;21988;-75
2023/05/05 00:47:10;;;;;;;21.80;11.80;;;;;;;12.08;42.88;100949.48;110281;1265;21946;-75
2023/05/05 00:49:39;;;;;;;13.90;11.00;;;;;;;12.03;43.22;100947.22;110103;1266;21984;-75
2023/05/05 00:52:10;;;;;;;19.60;13.20;;;;;;;12.00;43.26;100942.07;110055;1266;22418;-76
2023/05/05 00:54:44;;;;;;;19.50;14.70;;;;;;;11.98;43.27;100936.91;110511;1265;22035;-77
2023/05/05 00:57:13;;;;;;;;;;;;;;;11.95;43.38;100934.39;110185;1265;21994;-76
2023/05/05 00:59:43;;;;;;;16.80;13.60;;;;;;;11.81;43.73;100933.81;110587;1255;23638;-78
2023/05/05 01:02:13;;;;;;;17.10;14.60;;;;;;;11.73;43.78;100933.00;111342;1254;23722;-76
2023/05/05 01:04:46;;;;;;;16.90;12.70;;;;;;;11.67;44.05;100930.42;111243;1249;22637;-77
2023/05/05 01:07:42;;;;;;;19.50;14.20;;;;;;;11.62;44.29;100932.84;111445;1254;21984;-76
2023/05/05 01:10:34;;;;;;;19.50;15.30;;;;;;;11.57;44.40;100930.23;111570;1254;23708;-76
2023/05/05 01:13:35;;;;;;;19.90;14.90;;;;;;;11.54;44.83;100929.61;111356;1254;21965;-77
2023/05/05 01:16:20;;;;;;;23.60;17.50;;;;;;;11.53;45.04;100925.14;111347;1254;22476;-76
2023/05/05 01:19:22;;;;;;;19.40;17.10;;;;;;;11.52;45.15;100921.31;111385;1254;21973;-77
2023/05/05 01:21:59;;;;;;;24.30;18.20;;;;;;;11.51;45.09;100922.77;111403;1253;23034;-76
2023/05/05 01:24:56;;;;;;;19.00;17.00;;;;;;;11.46;45.22;100921.84;111143;1254;21982;-76
2023/05/05 01:28:13;;;;;;;23.60;19.70;;;;;;;11.42;45.40;100924.09;110862;1261;21974;-78
2023/05/05 01:31:07;;;;;;;33.80;19.20;;;;;;;11.33;45.48;100917.06;110688;1261;22278;-77
2023/05/05 01:33:50;;;;;;;25.40;19.00;;;;;;;11.29;45.81;100919.61;110578;1260;21998;-80
2023/05/05 01:36:34;;;;;;;23.10;19.40;;;;;;;11.30;45.81;100921.50;110763;1258;21939;-77
2023/05/05 01:39:05;;;;;;;25.40;20.00;;;;;;;11.32;45.84;100920.91;110771;1260;21998;-78
2023/05/05 01:41:43;;;;;;;27.70;19.30;;;;;;;11.33;45.96;100921.05;110671;1260;21940;-77
2023/05/05 01:44:15;;;;;;;26.60;20.70;;;;;;;11.32;46.02;100920.92;110692;1263;21984;-76
2023/05/05 01:46:44;;;;;;;23.50;19.00;;;;;;;11.30;46.12;100919.75;110854;1258;21966;-77
2023/05/05 01:49:14;;;;;;;32.20;21.00;;;;;;;11.30;46.26;100918.92;110940;1257;23625;-77
2023/05/05 01:51:45;;;;;;;25.80;19.70;;;;;;;11.29;46.38;100917.20;110743;1263;21990;-77
2023/05/05 01:54:17;;;;;;;23.30;19.70;;;;;;;11.28;46.45;100917.04;110825;1262;23692;-78
2023/05/05 01:56:52;;;;;;;23.70;20.30;;;;;;;11.29;46.54;100918.92;110609;1262;21985;-79
2023/05/05 01:59:22;;;;;;;23.00;19.40;;;;;;;11.28;46.45;100920.69;110615;1262;21980;-77
2023/05/05 02:01:51;;;;;;;26.00;21.50;;;;;;;11.26;46.62;100920.23;109632;1266;23607;-78
2023/05/05 02:04:25;;;;;;;26.50;19.90;;;;;;;11.24;46.64;100913.69;109808;1268;22379;-77
2023/05/05 02:07:00;;;;;;;27.40;19.80;;;;;;;11.21;46.82;100908.89;109859;1268;23024;-77
2023/05/05 02:09:36;;;;;;;25.90;21.00;;;;;;;11.20;46.75;100906.51;109798;1266;21991;-77
2023/05/05 02:12:12;;;;;;;27.30;19.20;;;;;;;11.19;46.72;100906.88;110192;1266;21976;-77
2023/05/05 02:14:46;;;;;;;22.70;20.30;;;;;;;11.19;46.90;100906.18;110210;1266;21981;-77
2023/05/05 02:17:16;;;;;;;20.90;17.90;;;;;;;11.20;46.93;100908.76;110402;1265;21994;-76
2023/05/05 02:19:48;;;;;;;21.70;18.60;;;;;;;11.21;46.93;100907.84;110134;1259;22283;-77
2023/05/05 02:22:20;;;;;;;26.10;20.80;;;;;;;11.20;46.84;100906.48;110851;1254;22696;-78
2023/05/05 02:24:58;;;;;;;24.20;19.30;;;;;;;11.15;46.80;100899.86;110798;1260;23364;-77
2023/05/05 02:27:32;;;;;;;27.50;20.10;;;;;;;11.14;46.95;100902.14;111010;1254;23063;-76
2023/05/05 02:30:19;;;;;;;23.00;18.80;;;;;;;11.11;47.14;100900.50;111146;1255;22719;-76
2023/05/05 02:33:05;;;;;;;;;;;;;;;11.08;47.21;100899.20;111214;1255;22011;-76
2023/05/05 02:35:46;;;;;;;27.60;20.00;;;;;;;10.97;47.30;100899.88;111304;1254;21966;-77
2023/05/05 02:38:30;;;;;;;23.90;18.70;;;;;;;10.96;47.64;100903.23;110901;1260;22273;-75
2023/05/05 02:41:04;;;;;;;22.40;18.50;;;;;;;11.01;47.54;100903.43;110703;1261;21979;-76
2023/05/05 02:43:47;;;;;;;22.40;19.40;;;;;;;11.04;47.47;100901.24;110747;1260;21997;-76
2023/05/05 02:46:20;;;;;;;24.10;18.90;;;;;;;11.05;47.43;100900.52;110559;1260;23743;-77
2023/05/05 02:48:58;;;;;;;24.20;19.40;;;;;;;11.03;47.43;100899.69;110870;1260;22285;-77
2023/05/05 02:51:31;;;;;;;23.50;18.70;;;;;;;11.01;47.38;100899.76;110765;1260;21942;-76
2023/05/05 02:54:13;;;;;;;25.10;19.30;;;;;;;10.98;47.53;100898.27;110871;1258;22280;-77
2023/05/05 02:56:56;;;;;;;25.00;22.40;;;;;;;10.91;47.59;100899.38;111323;1254;21994;-76
2023/05/05 02:59:25;;;;;;;29.50;25.00;;;;;;;10.84;47.72;100900.45;111266;1255;21955;-77
2023/05/05 03:02:44;;;;;;;34.20;27.20;;;;;;;10.81;48.00;100898.81;111521;1255;21952;-76
2023/05/05 03:05:30;;;;;;;34.90;28.30;;;;;;;10.75;48.36;100901.59;111473;1254;21964;-77
2023/05/05 03:08:18;;;;;;;40.80;29.50;;;;;;;10.74;48.70;100904.77;111143;1255;21958;-76
2023/05/05 03:11:16;;;;;;;34.90;27.40;;;;;;;10.77;48.92;100902.06;111215;1255;21965;-82
2023/05/05 03:14:20;;;;;;;32.60;28.70;;;;;;;10.80;49.12;100906.33;111654;1255;21983;-79
2023/05/05 03:17:05;;;;;;;40.30;35.10;;;;;;;10.84;49.23;100909.16;111525;1255;23862;-79
2023/05/05 03:19:46;;;;;;;37.60;33.50;;;;;;;10.85;49.21;100912.09;111412;1254;23777;-77
2023/05/05 03:22:36;;;;;;;33.80;27.20;;;;;;;10.86;49.21;100910.51;110773;1259;23092;-77
2023/05/05 03:25:06;;;;;;;27.10;22.40;;;;;;;10.87;49.29;100910.45;110815;1260;21997;-77
2023/05/05 03:27:37;;;;;;;25.00;22.30;;;;;;;10.89;49.14;100916.68;110224;1265;23640;-77
2023/05/05 03:30:09;;;;;;;25.40;22.70;;;;;;;10.90;48.92;100915.95;110170;1266;21983;-77
2023/05/05 03:32:46;;;;;;;28.40;22.50;;;;;;;10.90;48.81;100916.45;110365;1265;21979;-78
2023/05/05 03:35:21;;;;;;;36.10;25.30;;;;;;;10.90;48.62;100918.91;109837;1271;22290;-77
2023/05/05 03:37:57;;;;;;;35.60;28.80;;;;;;;10.90;48.70;100925.17;109788;1271;21982;-77
2023/05/05 03:40:33;;;;;;;37.70;30.40;;;;;;;10.91;48.60;100922.70;109715;1265;21992;-77
2023/05/05 03:43:18;;;;;;;37.50;29.40;;;;;;;10.93;48.73;100916.54;110396;1265;21991;-78
2023/05/05 03:45:52;;;;;;;33.30;26.40;;;;;;;10.95;48.69;100918.58;110509;1260;21975;-79
2023/05/05 03:48:24;;;;;;;36.40;27.80;;;;;;;10.98;48.68;100919.52;110836;1260;23756;-78
2023/05/05 03:51:03;;;;;;;36.70;26.80;;;;;;;11.03;48.76;100921.63;110792;1260;21970;-78
2023/05/05 03:53:41;;;;;;;35.40;28.30;;;;;;;11.11;48.74;100920.89;110918;1254;21963;-76
2023/05/05 03:56:21;;;;;;;30.30;26.50;;;;;;;11.17;48.62;100921.91;111230;1254;23574;-77
2023/05/05 03:58:53;;;;;;;34.30;27.80;;;;;;;11.23;48.50;100922.25;110730;1260;21989;-78
2023/05/05 04:01:22;;;;;;;37.60;28.60;;;;;;;11.34;48.65;100922.27;110806;1260;21984;-77
2023/05/05 04:03:51;;;;;;;33.80;28.80;;;;;;;11.43;48.69;100925.81;110591;1259;21975;-77
2023/05/05 04:06:27;;;;;;;38.10;29.70;;;;;;;11.52;48.52;100928.65;110853;1259;21965;-79
2023/05/05 04:09:02;;;;;;;34.60;26.40;;;;;;;11.61;48.47;100932.55;110860;1259;21946;-77
2023/05/05 04:11:38;;;;;;;38.10;26.60;;;;;;;11.71;48.41;100937.25;110871;1259;23606;-76
2023/05/05 04:14:13;;;;;;;25.70;22.30;;;;;;;11.80;48.01;100937.84;110802;1260;22235;-77
2023/05/05 04:16:44;;;;;;;34.50;22.20;;;;;;;11.84;47.78;100936.30;110406;1260;23689;-77
2023/05/05 04:19:15;;;;;;;28.20;19.30;;;;;;;11.87;47.60;100937.79;110913;1257;23022;-77
2023/05/05 04:21:46;;;;;;;27.70;18.90;;;;;;;11.90;47.65;100934.73;110689;1256;24276;-78
2023/05/05 04:24:23;;;;;;;23.20;19.20;;;;;;;11.93;47.53;100937.27;110715;1260;23706;-77
2023/05/05 04:26:57;;;;;;;28.80;18.60;;;;;;;11.94;47.36;100940.02;110647;1260;22979;-79
2023/05/05 04:29:45;;;;;;;24.40;17.40;;;;;;;11.94;47.29;100942.30;110687;1262;22191;-80
2023/05/05 04:32:26;;;;;;;24.60;16.70;;;;;;;11.94;47.13;100945.41;110633;1263;21972;-79
2023/05/05 04:35:02;;;;;;;24.50;17.20;;;;;;;11.97;47.09;100945.84;110424;1259;21974;-77
2023/05/05 04:37:36;;;;;;;30.00;16.50;;;;;;;11.98;47.16;100946.52;110833;1259;22431;-79
2023/05/05 04:40:08;;;;;;;20.00;14.80;;;;;;;12.00;47.08;100945.38;110832;1259;21940;-77
2023/05/05 04:42:42;;;;;;;17.70;14.40;;;;;;;12.02;47.24;100948.98;110714;1260;23758;-76
2023/05/05 04:45:21;;;;;;;17.10;14.10;;;;;;;12.06;47.18;100953.03;110366;1260;21993;-77
2023/05/05 04:47:57;;;;;;;23.40;14.00;;;;;;;12.09;47.18;100959.59;111012;1254;21949;-76
2023/05/05 04:50:37;;;;;;;19.00;13.30;;;;;;;12.12;47.03;100960.33;111306;1254;21981;-76
2023/05/05 04:53:38;;;;;;;;;;;;;;;;;;;;;
2023/05/05 04:56:14;;;;;;;14.60;12.80;;;;;;;12.22;47.10;100961.92;110982;1261;21991;-78
2023/05/05 04:59:02;;;;;;;16.70;10.90;;;;;;;12.25;46.64;100965.99;110952;1261;22804;-79
2023/05/05 05:01:47;;;;;;;;;;;;;;;;;;;;;
2023/05/05 05:04:39;;;;;;;21.30;12.80;;;;;;;12.29;46.97;100972.14;110927;1261;21989;-80
2023/05/05 05:07:13;;;;;;;17.20;13.70;;;;;;;12.34;46.94;100974.21;111013;1261;21990;-77
2023/05/05 05:09:46;;;;;;;22.30;18.40;;;;;;;12.41;46.89;100980.43;110748;1261;22986;-79
2023/05/05 05:12:41;;;;;;;24.60;17.80;;;;;;;12.39;46.72;100978.92;111339;1256;22275;-79
2023/05/05 05:15:20;;;;;;;22.40;17.10;;;;;;;12.37;46.57;100981.98;110609;1261;24304;-81
2023/05/05 05:17:55;;;;;;;24.90;18.10;;;;;;;12.36;46.89;100984.80;110641;1261;21972;-79
2023/05/05 05:20:31;;;;;;;22.90;18.20;;;;;;;12.38;46.97;100983.67;110698;1263;22015;-79
2023/05/05 05:23:20;;;;;;;29.00;19.70;;;;;;;12.37;47.09;100982.50;110900;1261;22006;-78
2023/05/05 05:26:06;;;;;;;29.80;19.60;;;;;;;12.43;47.25;100984.20;110380;1267;21994;-76
2023/05/05 05:28:50;;;;;;;26.60;19.00;;;;;;;12.52;47.33;100985.65;109937;1267;21978;-79
2023/05/05 05:31:20;;;;;;;23.40;19.90;;;;;;;12.61;47.45;100982.86;109422;1272;24302;-75
2023/05/05 05:33:55;;;;;;;32.40;22.50;;;;;;;12.77;47.64;100985.77;109560;1268;21976;-77
2023/05/05 05:36:40;;;;;;;23.60;21.10;;;;;;;13.02;47.71;100989.05;109965;1268;22033;-77
2023/05/05 05:39:13;;;;;;;28.60;23.00;;;;;;;13.33;47.44;100989.98;109718;1271;21977;-77
2023/05/05 05:41:45;;;;;;;29.10;23.30;;;;;;;13.55;46.75;100988.61;109572;1271;22371;-77
2023/05/05 05:44:21;;;;;;;27.80;23.80;;;;;;;13.64;46.10;100995.21;109851;1268;22162;-77
2023/05/05 05:46:49;;;;;;;29.30;24.40;;;;;;;13.69;45.84;100994.33;110086;1268;23054;-77
2023/05/05 05:49:20;;;;;;;35.80;24.90;;;;;;;13.72;45.83;100998.40;109971;1268;22979;-77
2023/05/05 05:51:50;;;;;;;30.20;24.40;;;;;;;13.79;46.11;101001.10;110168;1266;21990;-75
2023/05/05 05:54:21;;;;;;;25.90;23.10;;;;;;;13.85;45.79;100999.45;110015;1270;21990;-77
2023/05/05 05:56:53;;;;;;;27.30;23.30;;;;;;;13.90;45.66;100996.80;110363;1262;23644;-78
2023/05/05 05:59:36;;;;;;;26.80;21.80;;;;;;;13.94;45.48;100996.80;110685;1262;22473;-77
2023/05/05 06:02:13;;;;;;;29.00;22.00;;;;;;;14.07;45.65;101002.23;110515;1260;23025;-76
2023/05/05 06:04:53;;;;;;;24.60;20.20;;;;;;;14.32;45.67;101003.25;110789;1255;23149;-76
2023/05/05 06:07:25;;;;;;;29.20;21.10;;;;;;;14.60;45.27;101003.80;110886;1260;22735;-76
2023/05/05 06:09:56;;;;;;;23.10;20.30;;;;;;;14.83;44.78;101007.89;110848;1260;21970;-77
2023/05/05 06:12:25;;;;;;;28.30;22.00;;;;;;;15.02;44.14;101002.83;110798;1256;23600;-76
2023/05/05 06:14:59;;;;;;;28.30;21.00;;;;;;;15.18;43.83;101001.71;111318;1256;21996;-78
2023/05/05 06:17:39;;;;;;;24.10;20.00;;;;;;;15.36;43.48;101002.80;110773;1259;23077;-77
2023/05/05 06:20:15;;;;;;;30.30;20.10;;;;;;;15.53;43.19;101007.80;111020;1259;22051;-78
2023/05/05 06:22:56;;;;;;;24.90;18.90;;;;;;;15.69;42.92;101009.67;110755;1259;23923;-79
2023/05/05 06:25:26;;;;;;;28.70;17.80;;;;;;;15.82;42.67;101010.96;111149;1258;23587;-76
2023/05/05 06:27:58;;;;;;;18.70;14.30;;;;;;;16.01;42.66;101009.52;111129;1259;23683;-78
2023/05/05 06:30:41;;;;;;;20.30;15.20;;;;;;;16.21;41.93;101010.83;111121;1259;23066;-78
2023/05/05 06:33:13;;;;;;;18.00;13.80;;;;;;;16.36;41.33;101021.45;111275;1258;21966;-77
2023/05/05 06:35:55;;;;;;;19.40;13.70;;;;;;;16.44;40.67;101019.27;111059;1254;22746;-78
2023/05/05 06:38:28;;;;;;;23.50;13.80;;;;;;;16.47;40.74;101024.22;111399;1255;21966;-73
2023/05/05 06:41:00;;;;;;;22.30;15.30;;;;;;;16.55;41.05;101021.71;111237;1255;23615;-74
2023/05/05 06:43:35;;;;;;;16.50;13.70;;;;;;;16.70;41.29;101027.60;111399;1256;22315;-78
2023/05/05 06:46:18;;;;;;;21.50;13.60;;;;;;;16.84;41.07;101027.42;111444;1255;21982;-79
2023/05/05 06:49:08;;;;;;;19.00;14.00;;;;;;;16.88;40.76;101029.46;110997;1256;389922;-78
2023/05/05 06:51:38;;;;;;;19.70;12.50;;;;;;;16.89;40.42;101026.81;111428;1255;22743;-78
2023/05/05 06:54:13;;;;;;;20.70;12.40;;;;;;;16.91;40.68;101024.23;111257;1256;22003;-80
2023/05/05 06:56:55;;;;;;;21.50;12.30;;;;;;;17.07;41.01;101028.30;110947;1260;21971;-78
2023/05/05 06:59:36;;;;;;;22.60;11.90;;;;;;;17.29;40.81;101026.23;111095;1260;21968;-80
2023/05/05 07:02:18;;;;;;;;;;;;;;;;;;;;;
2023/05/05 07:04:59;;;;;;;23.20;11.70;;;;;;;17.72;39.90;101021.52;110951;1261;21972;-77
2023/05/05 07:07:33;;;;;;;18.10;10.80;;;;;;;17.86;39.33;101021.60;110800;1261;23696;-81
2023/05/05 07:10:08;;;;;;;15.30;10.90;;;;;;;17.86;38.70;101021.29;110876;1260;23293;-79
2023/05/05 07:12:38;;;;;;;18.70;12.20;;;;;;;17.76;37.94;101027.27;110982;1260;22006;-80
2023/05/05 07:15:22;;;;;;;13.60;9.90;;;;;;;17.64;38.04;101029.05;111325;1256;21967;-80
2023/05/05 07:18:15;;;;;;;15.80;11.20;;;;;;;17.59;38.00;101029.30;111231;1255;21979;-80
2023/05/05 07:20:48;;;;;;;13.60;10.90;;;;;;;17.67;38.65;101028.67;111334;1256;21963;-79
2023/05/05 07:23:23;;;;;;;18.10;11.90;;;;;;;17.89;38.80;101027.63;110834;1260;21965;-79
2023/05/05 07:25:57;;;;;;;13.70;10.40;;;;;;;18.11;38.53;101029.87;110812;1260;21970;-78
2023/05/05 07:28:32;;;;;;;14.90;10.60;;;;;;;18.24;38.36;101027.31;110697;1260;22009;-77
2023/05/05 07:31:05;;;;;;;16.10;10.50;;;;;;;18.52;38.46;101023.05;110272;1265;21973;-78
2023/05/05 07:33:40;;;;;;;20.50;11.90;;;;;;;18.77;38.31;101013.95;110155;1265;23731;-78
2023/05/05 07:36:12;;;;;;;17.10;10.70;;;;;;;19.07;38.27;101014.04;110242;1265;21988;-77
2023/05/05 07:38:44;;;;;;;16.80;11.60;;;;;;;19.42;37.98;101017.82;110546;1264;23077;-78
2023/05/05 07:41:18;;;;;;;17.00;11.60;;;;;;;19.72;36.68;101018.02;110359;1261;21982;-78
2023/05/05 07:43:50;;;;;;;12.50;10.70;;;;;;;19.91;36.40;101019.09;110634;1261;21968;-77
2023/05/05 07:46:19;;;;;;;17.60;11.60;;;;;;;20.00;35.83;101015.83;110784;1261;23715;-77
2023/05/05 07:48:52;;;;;;;14.60;10.60;;;;;;;19.95;35.16;101013.18;110904;1255;21967;-78
2023/05/05 07:51:25;;;;;;;15.20;10.70;;;;;;;19.82;35.27;101014.89;111134;1255;21966;-77
2023/05/05 07:54:11;;;;;;;16.40;10.30;;;;;;;19.81;35.30;101017.25;111191;1260;22148;-78
2023/05/05 07:56:43;;;;;;;15.70;11.00;;;;;;;19.68;35.12;101015.97;110937;1261;21966;-77
2023/05/05 07:59:18;;;;;;;18.30;11.90;;;;;;;19.64;35.73;101019.20;110842;1260;23699;-78
2023/05/05 08:01:52;;;;;;;14.90;10.50;;;;;;;19.58;35.61;101018.03;110972;1260;23720;-77
2023/05/05 08:04:27;;;;;;;15.40;11.20;;;;;;;19.47;35.94;101021.02;111044;1259;23696;-77
2023/05/05 08:07:04;;;;;;;17.40;11.40;;;;;;;19.44;36.01;101018.92;110830;1260;22731;-80
2023/05/05 08:09:45;;;;;;;15.80;10.60;;;;;;;19.37;36.11;101018.67;110888;1260;23096;-78
2023/05/05 08:12:20;;;;;;;12.80;10.60;;;;;;;19.43;35.96;101015.27;110899;1260;21969;-77
2023/05/05 08:14:51;;;;;;;16.10;11.30;;;;;;;19.45;35.94;101016.58;110315;1265;21995;-77
2023/05/05 08:17:24;;;;;;;13.00;11.00;;;;;;;19.60;35.70;101021.27;110288;1265;22009;-78
2023/05/05 08:19:53;;;;;;;12.60;10.80;;;;;;;19.65;35.35;101015.95;111162;1259;21968;-77
2023/05/05 08:22:28;;;;;;;14.00;11.30;;;;;;;19.64;35.20;101014.14;110874;1257;22101;-77
2023/05/05 08:24:59;;;;;;;15.30;9.60;;;;;;;19.70;35.68;101012.67;111355;1260;21983;-77
2023/05/05 08:27:30;;;;;;;13.70;8.90;;;;;;;19.88;35.33;101012.59;110897;1260;21997;-76
2023/05/05 08:29:59;;;;;;;12.10;8.90;;;;;;;20.26;35.00;101016.05;111105;1256;21965;-78
2023/05/05 08:32:39;;;;;;;11.60;8.80;;;;;;;20.79;34.21;101018.94;111154;1255;22419;-79
2023/05/05 08:35:17;;;;;;;12.30;9.40;;;;;;;21.29;33.37;101016.30;111364;1254;23017;-77
2023/05/05 08:37:55;;;;;;;11.10;8.70;;;;;;;21.71;32.77;101015.36;111439;1255;23023;-79
2023/05/05 08:40:36;;;;;;;13.00;8.80;;;;;;;22.17;31.79;101018.14;110787;1261;21968;-78
2023/05/05 08:43:14;;;;;;;10.40;8.00;;;;;;;22.40;30.29;101019.81;111177;1260;21953;-78
2023/05/05 08:45:56;;;;;;;7.90;6.60;;;;;;;22.57;29.87;101014.77;111092;1257;22096;-77
2023/05/05 08:48:29;;;;;;;12.00;8.20;;;;;;;22.87;29.35;101012.73;111214;1260;22715;-78
2023/05/05 08:51:08;;;;;;;11.50;8.30;;;;;;;23.20;28.81;101011.89;111207;1260;23708;-78
2023/05/05 08:54:10;;;;;;;11.50;7.20;;;;;;;23.52;28.68;101010.38;110752;1260;23896;-78
2023/05/05 08:56:45;;;;;;;12.20;7.10;;;;;;;23.66;26.55;101012.10;110927;1260;22206;-77
2023/05/05 08:59:36;;;;;;;10.80;8.30;;;;;;;23.62;26.39;101011.71;110761;1261;21971;-75
2023/05/05 09:02:10;;;;;;;9.90;8.50;;;;;;;23.53;26.29;101014.05;110637;1260;21988;-76
2023/05/05 09:04:40;;;;;;;11.30;7.50;;;;;;;23.58;26.57;101016.65;110863;1251;22416;-78
2023/05/05 09:07:12;;;;;;;9.30;7.60;;;;;;;23.54;26.97;101013.82;111020;1259;21952;-76
2023/05/05 09:09:54;;;;;;;10.30;8.40;;;;;;;23.63;26.94;101016.45;110982;1257;23689;-79
2023/05/05 09:12:39;;;;;;;18.80;8.20;;;;;;;23.63;26.99;101015.54;111012;1258;23617;-78
2023/05/05 09:15:16;;;;;;;10.90;8.40;;;;;;;23.62;26.91;101017.72;111045;1258;21986;-83
2023/05/05 09:20:54;;;;;;;14.10;8.70;;;;;;;23.52;27.13;101017.83;111037;1259;23634;-77
2023/05/05 09:24:00;;;;;;;10.30;8.00;;;;;;;23.54;27.41;101015.38;111199;1256;23014;-80
2023/05/05 09:26:54;;;;;;;19.70;9.60;;;;;;;23.48;27.29;101015.83;110607;1262;21965;-80
2023/05/05 09:29:36;;;;;;;13.10;8.70;;;;;;;23.29;27.34;101015.27;110557;1265;23848;-80
2023/05/05 09:32:10;;;;;;;11.30;7.80;;;;;;;23.09;27.47;101018.81;110896;1260;23716;-82
2023/05/05 09:34:56;;;;;;;13.40;7.90;;;;;;;23.06;27.73;101019.81;110848;1263;22006;-79
2023/05/05 09:37:32;;;;;;;10.20;7.90;;;;;;;23.21;27.74;101018.27;110160;1269;22966;-79
2023/05/05 09:40:05;;;;;;;11.10;7.80;;;;;;;23.53;27.48;101019.55;110283;1268;21997;-77
2023/05/05 09:42:37;;;;;;;9.40;6.90;;;;;;;23.74;27.01;101015.70;109716;1272;23064;-80
2023/05/05 09:45:18;;;;;;;15.20;8.20;;;;;;;24.03;26.68;101006.75;109786;1272;21993;-79
2023/05/05 09:47:58;;;;;;;9.10;8.00;;;;;;;24.22;26.02;101007.83;109759;1265;21989;-79
2023/05/05 09:50:29;;;;;;;15.70;8.90;;;;;;;24.29;26.00;101009.30;109785;1272;22778;-77
2023/05/05 09:53:06;;;;;;;10.20;8.70;;;;;;;24.25;25.72;101015.02;109910;1269;21982;-79
2023/05/05 09:55:35;;;;;;;13.40;9.00;;;;;;;23.94;25.38;101018.66;110370;1265;22044;-79
2023/05/05 09:58:26;;;;;;;11.30;8.90;;;;;;;23.50;25.78;101021.58;110645;1265;22040;-79
2023/05/05 10:00:57;;;;;;;10.40;7.90;;;;;;;23.17;26.41;101017.29;110824;1250;22750;-79
2023/05/05 10:03:35;;;;;;;12.20;7.50;;;;;;;23.14;26.91;101015.21;111035;1254;21962;-78
2023/05/05 10:06:07;;;;;;;9.10;7.50;;;;;;;23.25;26.58;101011.48;110951;1260;21966;-79
2023/05/05 10:08:38;;;;;;;11.40;8.80;;;;;;;23.28;26.38;101012.20;111071;1260;23631;-79
2023/05/05 10:11:07;;;;;;;10.80;7.40;;;;;;;23.25;26.52;101009.60;111059;1260;21964;-77
2023/05/05 10:13:40;;;;;;;10.20;7.00;;;;;;;23.32;26.49;101010.81;111015;1260;22614;-77
2023/05/05 10:16:13;;;;;;;11.40;7.70;;;;;;;23.36;26.62;101006.69;110884;1260;24936;-77
2023/05/05 10:18:45;;;;;;;10.70;8.60;;;;;;;23.51;26.42;101005.83;111129;1260;24839;-78
2023/05/05 10:21:20;;;;;;;11.00;8.50;;;;;;;23.40;26.11;101002.15;110952;1260;21979;-79
2023/05/05 10:24:27;;;;;;;14.40;8.10;;;;;;;23.34;26.48;100999.63;111130;1254;22114;-79
2023/05/05 10:27:02;;;;;;;8.70;7.80;;;;;;;23.20;26.33;101003.59;111524;1254;23773;-77
2023/05/05 10:29:42;;;;;;;9.20;7.30;;;;;;;22.92;26.25;101000.14;111486;1254;21977;-79
2023/05/05 10:32:32;;;;;;;12.90;8.20;;;;;;;22.87;26.61;100998.96;111732;1253;21970;-81
2023/05/05 10:35:30;;;;;;;11.40;7.50;;;;;;;22.76;26.59;101000.33;111513;1253;22366;-79
2023/05/05 10:38:00;;;;;;;11.50;7.40;;;;;;;22.69;26.94;100998.90;111001;1259;23657;-79
2023/05/05 10:40:32;;;;;;;9.80;7.20;;;;;;;22.64;26.78;100998.80;111141;1258;22017;-78
2023/05/05 10:43:16;;;;;;;16.80;8.20;;;;;;;22.42;26.79;100994.64;111191;1258;21964;-79
2023/05/05 10:45:59;;;;;;;11.30;7.50;;;;;;;22.22;26.99;100995.79;111273;1258;21959;-77
2023/05/05 10:48:46;;;;;;;8.30;6.90;;;;;;;22.05;26.84;100992.11;111121;1258;22949;-79
2023/05/05 10:51:56;;;;;;;12.40;7.70;;;;;;;21.76;27.04;100984.92;110975;1259;23036;-78
2023/05/05 10:55:00;;;;;;;10.00;6.10;;;;;;;21.51;27.22;100980.37;111145;1257;21995;-80
2023/05/05 10:57:31;;;;;;;;;;;;;;;21.32;27.41;100977.64;111121;1260;23631;-77
2023/05/05 11:00:03;;;;;;;10.60;6.10;;;;;;;21.10;27.62;100977.14;110807;1253;22876;-78
2023/05/05 11:02:32;;;;;;;16.30;6.90;;;;;;;20.99;27.79;100971.39;110655;1258;23032;-77
2023/05/05 11:05:25;;;;;;;8.00;6.10;;;;;;;20.85;28.01;100975.73;110699;1260;21973;-79
2023/05/05 11:08:26;;;;;;;8.50;5.70;;;;;;;20.61;28.06;100974.91;110886;1260;24876;-77
2023/05/05 11:10:59;;;;;;;8.00;6.20;;;;;;;20.38;28.37;100966.42;110840;1260;23789;-78
2023/05/05 11:13:29;;;;;;;9.70;6.20;;;;;;;20.35;28.44;100967.90;111333;1260;21983;-78
2023/05/05 11:16:01;;;;;;;8.90;6.00;;;;;;;20.35;28.51;100968.06;110868;1256;22028;-77
2023/05/05 11:18:47;;;;;;;10.80;7.20;;;;;;;20.33;28.67;100967.11;110536;1266;21978;-80
2023/05/05 11:21:26;;;;;;;;;;;;;;;20.23;28.85;100969.03;110591;1265;21967;-79
2023/05/05 11:24:32;;;;;;;10.40;6.40;;;;;;;20.05;28.97;100965.83;110092;1265;22011;-78
2023/05/05 11:27:06;;;;;;;12.50;5.90;;;;;;;20.04;29.34;100963.95;110177;1265;22057;-78
2023/05/05 11:30:06;;;;;;;8.40;7.00;;;;;;;20.16;29.31;100961.35;109709;1270;21990;-79
2023/05/05 11:33:51;;;;;;;11.50;6.70;;;;;;;20.21;29.33;100955.02;109975;1264;23033;-79
2023/05/05 11:36:39;;;;;;;9.60;8.20;;;;;;;20.24;29.67;100948.98;109683;1266;22062;-78
2023/05/05 11:39:32;;;;;;;;;;;;;;;20.27;29.84;100950.55;110290;1262;21966;-79
2023/05/05 11:42:25;;;;;;;11.10;9.60;;;;;;;20.15;29.79;100950.50;110549;1266;21990;-78
2023/05/05 11:44:54;;;;;;;9.10;6.70;;;;;;;20.07;29.83;100950.02;110315;1266;22222;-79
2023/05/05 11:47:32;;;;;;;7.90;7.10;;;;;;;20.08;30.14;100946.22;110236;1267;21923;-79
2023/05/05 11:50:20;;;;;;;15.50;13.90;;;;;;;20.11;30.23;100945.33;110313;1266;21993;-79
2023/05/05 11:53:02;;;;;;;16.40;7.70;;;;;;;20.06;30.27;100949.35;110502;1264;23709;-81
2023/05/05 11:56:06;;;;;;;11.40;6.20;;;;;;;20.05;30.35;100943.23;111010;1261;21979;-79
2023/05/05 11:59:13;;;;;;;6.90;6.10;;;;;;;20.11;30.19;100938.98;111034;1260;21966;-78
2023/05/05 12:01:47;;;;;;;15.00;9.80;;;;;;;20.10;29.97;100938.85;109858;1270;23092;-79
2023/05/05 12:04:17;;;;;;;11.80;6.90;;;;;;;20.12;30.00;100938.92;109632;1271;21972;-79